sensor_id;sensor_type;location;lat;lon;timestamp;pressure;altitude;pressure_sealevel;temperature;humidity
58658;BME280;44428;45.630;13.786;2023-02-07T00:01:28;103536.19;;;-0.71;44.83
58658;BME280;44428;45.630;13.786;2023-02-07T00:03:55;103542.13;;;-0.76;45.08
58658;BME280;44428;45.630;13.786;2023-02-07T00:06:30;103526.22;;;-0.92;45.07
58658;BME280;44428;45.630;13.786;2023-02-07T00:09:00;103527.22;;;-0.85;44.97
58658;BME280;44428;45.630;13.786;2023-02-07T00:11:26;103547.25;;;-0.79;45.33
58658;BME280;44428;45.630;13.786;2023-02-07T00:13:55;103530.78;;;-0.81;44.97
58658;BME280;44428;45.630;13.786;2023-02-07T00:16:21;103536.72;;;-0.85;45.40
58658;BME280;44428;45.630;13.786;2023-02-07T00:18:47;103537.66;;;-0.83;45.70
58658;BME280;44428;45.630;13.786;2023-02-07T00:21:16;103524.31;;;-0.99;45.89
58658;BME280;44428;45.630;13.786;2023-02-07T00:23:43;103536.72;;;-0.85;45.99
58658;BME280;44428;45.630;13.786;2023-02-07T00:26:10;103524.47;;;-0.93;45.97
58658;BME280;44428;45.630;13.786;2023-02-07T00:28:47;103528.78;;;-0.93;46.48
58658;BME280;44428;45.630;13.786;2023-02-07T00:31:37;103539.19;;;-0.92;46.43
58658;BME280;44428;45.630;13.786;2023-02-07T00:34:05;103534.78;;;-0.96;46.66
58658;BME280;44428;45.630;13.786;2023-02-07T00:36:33;103540.19;;;-0.86;46.33
58658;BME280;44428;45.630;13.786;2023-02-07T00:39:02;103524.47;;;-0.93;46.67
58658;BME280;44428;45.630;13.786;2023-02-07T00:41:29;103522.66;;;-0.97;46.50
58658;BME280;44428;45.630;13.786;2023-02-07T00:43:55;103536.31;;;-1.04;46.65
58658;BME280;44428;45.630;13.786;2023-02-07T00:46:22;103530.84;;;-1.16;47.07
58658;BME280;44428;45.630;13.786;2023-02-07T00:48:48;103543.41;;;-0.97;46.92
58658;BME280;44428;45.630;13.786;2023-02-07T00:51:15;103528.75;;;-0.95;46.52
58658;BME280;44428;45.630;13.786;2023-02-07T00:53:43;103516.56;;;-0.97;46.48
58658;BME280;44428;45.630;13.786;2023-02-07T00:56:10;103550.56;;;-0.86;46.70
58658;BME280;44428;45.630;13.786;2023-02-07T00:58:37;103541.78;;;-0.92;46.54
58658;BME280;44428;45.630;13.786;2023-02-07T01:01:03;103511.44;;;-0.94;46.59
58658;BME280;44428;45.630;13.786;2023-02-07T01:03:30;103522.53;;;-1.03;46.81
58658;BME280;44428;45.630;13.786;2023-02-07T01:06:01;103524.31;;;-0.99;46.75
58658;BME280;44428;45.630;13.786;2023-02-07T01:08:27;103558.00;;;-1.00;46.92
58658;BME280;44428;45.630;13.786;2023-02-07T01:10:53;103520.75;;;-1.04;46.46
58658;BME280;44428;45.630;13.786;2023-02-07T01:13:19;103536.53;;;-0.95;46.69
58658;BME280;44428;45.630;13.786;2023-02-07T01:15:46;103550.94;;;-1.07;47.05
58658;BME280;44428;45.630;13.786;2023-02-07T01:18:14;103546.84;;;-0.98;46.74
58658;BME280;44428;45.630;13.786;2023-02-07T01:20:40;103544.88;;;-1.08;47.05
58658;BME280;44428;45.630;13.786;2023-02-07T01:23:06;103551.94;;;-1.01;46.53
58658;BME280;44428;45.630;13.786;2023-02-07T01:25:32;103555.81;;;-0.83;45.97
58658;BME280;44428;45.630;13.786;2023-02-07T01:27:58;103529.66;;;-0.93;46.27
58658;BME280;44428;45.630;13.786;2023-02-07T01:30:24;103525.47;;;-0.86;45.79
58658;BME280;44428;45.630;13.786;2023-02-07T01:32:51;103528.13;;;-0.83;45.75
58658;BME280;44428;45.630;13.786;2023-02-07T01:35:17;103521.16;;;-0.85;45.38
58658;BME280;44428;45.630;13.786;2023-02-07T01:37:43;103522.94;;;-0.84;45.35
58658;BME280;44428;45.630;13.786;2023-02-07T01:40:10;103513.50;;;-0.79;45.27
58658;BME280;44428;45.630;13.786;2023-02-07T01:42:36;103518.41;;;-0.93;45.47
58658;BME280;44428;45.630;13.786;2023-02-07T01:47:51;103510.69;;;-0.88;45.41
58658;BME280;44428;45.630;13.786;2023-02-07T01:50:18;103512.41;;;-0.90;45.47
58658;BME280;44428;45.630;13.786;2023-02-07T01:52:47;103510.47;;;-0.99;45.82
58658;BME280;44428;45.630;13.786;2023-02-07T01:55:23;103507.16;;;-0.94;45.15
58658;BME280;44428;45.630;13.786;2023-02-07T01:57:52;103504.28;;;-1.06;45.53
58658;BME280;44428;45.630;13.786;2023-02-07T02:00:19;103521.03;;;-0.92;45.11
58658;BME280;44428;45.630;13.786;2023-02-07T02:02:46;103506.31;;;-0.91;45.68
58658;BME280;44428;45.630;13.786;2023-02-07T02:05:13;103519.28;;;-0.93;45.88
58658;BME280;44428;45.630;13.786;2023-02-07T02:07:40;103520.88;;;-0.98;46.08
58658;BME280;44428;45.630;13.786;2023-02-07T02:10:14;103515.34;;;-1.13;46.28
58658;BME280;44428;45.630;13.786;2023-02-07T02:18:33;103513.53;;;-1.17;47.39
58658;BME280;44428;45.630;13.786;2023-02-07T02:35:20;103490.75;;;-1.29;46.58
58658;BME280;44428;45.630;13.786;2023-02-07T02:38:11;103501.91;;;-1.33;47.33
58658;BME280;44428;45.630;13.786;2023-02-07T02:43:12;103483.78;;;-1.31;47.72
58658;BME280;44428;45.630;13.786;2023-02-07T02:45:45;103482.19;;;-1.26;47.29
58658;BME280;44428;45.630;13.786;2023-02-07T02:48:17;103471.53;;;-1.39;47.36
58658;BME280;44428;45.630;13.786;2023-02-07T02:50:45;103456.75;;;-1.41;47.19
58658;BME280;44428;45.630;13.786;2023-02-07T02:53:13;103490.63;;;-1.33;47.68
58658;BME280;44428;45.630;13.786;2023-02-07T02:55:48;103469.97;;;-1.30;47.48
58658;BME280;44428;45.630;13.786;2023-02-07T03:01:46;103479.97;;;-1.46;47.69
58658;BME280;44428;45.630;13.786;2023-02-07T03:07:09;103481.81;;;-1.42;47.42
58658;BME280;44428;45.630;13.786;2023-02-07T03:09:53;103476.94;;;-1.29;46.82
58658;BME280;44428;45.630;13.786;2023-02-07T03:13:11;103480.25;;;-1.33;46.88
58658;BME280;44428;45.630;13.786;2023-02-07T03:15:31;103488.81;;;-1.38;47.05
58658;BME280;44428;45.630;13.786;2023-02-07T03:20:46;103480.03;;;-1.43;47.35
58658;BME280;44428;45.630;13.786;2023-02-07T03:23:15;103457.69;;;-1.38;47.22
58658;BME280;44428;45.630;13.786;2023-02-07T03:25:43;103491.50;;;-1.34;46.72
58658;BME280;44428;45.630;13.786;2023-02-07T03:28:11;103495.28;;;-1.20;45.98
58658;BME280;44428;45.630;13.786;2023-02-07T03:30:41;103512.44;;;-1.27;45.90
58658;BME280;44428;45.630;13.786;2023-02-07T03:33:12;103485.66;;;-1.24;45.33
58658;BME280;44428;45.630;13.786;2023-02-07T03:38:17;103473.81;;;-1.13;44.68
58658;BME280;44428;45.630;13.786;2023-02-07T03:41:34;103503.50;;;-1.02;45.03
58658;BME280;44428;45.630;13.786;2023-02-07T03:44:22;103489.47;;;-1.10;45.31
58658;BME280;44428;45.630;13.786;2023-02-07T03:46:49;103467.69;;;-1.17;45.80
58658;BME280;44428;45.630;13.786;2023-02-07T03:49:41;103500.13;;;-0.98;45.96
58658;BME280;44428;45.630;13.786;2023-02-07T03:52:07;103476.75;;;-0.99;45.60
58658;BME280;44428;45.630;13.786;2023-02-07T03:54:33;103458.47;;;-1.04;46.35
58658;BME280;44428;45.630;13.786;2023-02-07T03:56:59;103462.75;;;-1.06;46.33
58658;BME280;44428;45.630;13.786;2023-02-07T03:59:28;103470.47;;;-1.09;46.17
58658;BME280;44428;45.630;13.786;2023-02-07T04:01:54;103444.59;;;-1.06;45.95
58658;BME280;44428;45.630;13.786;2023-02-07T04:04:20;103462.03;;;-0.99;46.29
58658;BME280;44428;45.630;13.786;2023-02-07T04:07:09;103451.59;;;-1.02;46.34
58658;BME280;44428;45.630;13.786;2023-02-07T04:09:53;103477.41;;;-1.08;46.60
58658;BME280;44428;45.630;13.786;2023-02-07T04:12:19;103451.53;;;-1.05;46.66
58658;BME280;44428;45.630;13.786;2023-02-07T04:14:45;103449.66;;;-1.12;47.09
58658;BME280;44428;45.630;13.786;2023-02-07T04:17:13;103442.56;;;-1.19;46.96
58658;BME280;44428;45.630;13.786;2023-02-07T04:19:39;103446.06;;;-1.17;47.49
58658;BME280;44428;45.630;13.786;2023-02-07T04:22:05;103447.75;;;-1.19;47.61
58658;BME280;44428;45.630;13.786;2023-02-07T04:24:33;103453.81;;;-1.19;47.49
58658;BME280;44428;45.630;13.786;2023-02-07T04:27:00;103480.63;;;-1.18;48.06
58658;BME280;44428;45.630;13.786;2023-02-07T04:29:28;103463.25;;;-1.22;47.85
58658;BME280;44428;45.630;13.786;2023-02-07T04:31:54;103469.97;;;-1.30;48.11
58658;BME280;44428;45.630;13.786;2023-02-07T04:34:27;103472.53;;;-1.32;48.15
58658;BME280;44428;45.630;13.786;2023-02-07T04:36:56;103456.16;;;-1.29;48.45
58658;BME280;44428;45.630;13.786;2023-02-07T04:39:24;103454.31;;;-1.35;48.76
58658;BME280;44428;45.630;13.786;2023-02-07T04:41:50;103464.69;;;-1.33;48.50
58658;BME280;44428;45.630;13.786;2023-02-07T04:44:15;103466.41;;;-1.35;48.73
58658;BME280;44428;45.630;13.786;2023-02-07T04:46:41;103478.53;;;-1.34;49.00
58658;BME280;44428;45.630;13.786;2023-02-07T04:49:07;103461.06;;;-1.42;48.93
58658;BME280;44428;45.630;13.786;2023-02-07T04:51:36;103459.28;;;-1.43;49.19
58658;BME280;44428;45.630;13.786;2023-02-07T04:54:02;103462.72;;;-1.45;49.14
58658;BME280;44428;45.630;13.786;2023-02-07T04:56:28;103458.34;;;-1.46;48.95
58658;BME280;44428;45.630;13.786;2023-02-07T04:58:53;103479.97;;;-1.46;49.25
58658;BME280;44428;45.630;13.786;2023-02-07T05:01:19;103485.88;;;-1.53;49.48
58658;BME280;44428;45.630;13.786;2023-02-07T05:03:45;103481.66;;;-1.48;49.31
58658;BME280;44428;45.630;13.786;2023-02-07T05:06:14;103495.53;;;-1.46;49.37
58658;BME280;44428;45.630;13.786;2023-02-07T05:08:39;103480.69;;;-1.51;49.52
58658;BME280;44428;45.630;13.786;2023-02-07T05:11:11;103469.44;;;-1.52;49.06
58658;BME280;44428;45.630;13.786;2023-02-07T05:13:48;103497.31;;;-1.45;49.22
58658;BME280;44428;45.630;13.786;2023-02-07T05:16:13;103474.84;;;-1.43;49.25
58658;BME280;44428;45.630;13.786;2023-02-07T05:18:39;103481.75;;;-1.45;48.98
58658;BME280;44428;45.630;13.786;2023-02-07T05:21:05;103485.22;;;-1.43;48.67
58658;BME280;44428;45.630;13.786;2023-02-07T05:23:31;103473.91;;;-1.46;48.84
58658;BME280;44428;45.630;13.786;2023-02-07T05:25:57;103478.16;;;-1.50;49.10
58658;BME280;44428;45.630;13.786;2023-02-07T05:28:22;103483.41;;;-1.47;49.00
58658;BME280;44428;45.630;13.786;2023-02-07T05:30:52;103518.22;;;-1.39;48.61
58658;BME280;44428;45.630;13.786;2023-02-07T05:33:18;103481.59;;;-1.51;48.59
58658;BME280;44428;45.630;13.786;2023-02-07T05:35:44;103476.56;;;-1.45;48.60
58658;BME280;44428;45.630;13.786;2023-02-07T05:38:13;103521.47;;;-1.46;48.66
58658;BME280;44428;45.630;13.786;2023-02-07T05:40:41;103476.50;;;-1.48;48.56
58658;BME280;44428;45.630;13.786;2023-02-07T05:43:07;103483.63;;;-1.38;48.45
58658;BME280;44428;45.630;13.786;2023-02-07T05:45:33;103493.88;;;-1.44;48.55
58658;BME280;44428;45.630;13.786;2023-02-07T05:47:59;103478.38;;;-1.41;48.14
58658;BME280;44428;45.630;13.786;2023-02-07T05:50:25;103479.31;;;-1.39;47.88
58658;BME280;44428;45.630;13.786;2023-02-07T05:53:04;103483.56;;;-1.41;48.12
58658;BME280;44428;45.630;13.786;2023-02-07T05:55:30;103486.31;;;-1.34;47.77
58658;BME280;44428;45.630;13.786;2023-02-07T05:57:56;103489.53;;;-1.45;47.96
58658;BME280;44428;45.630;13.786;2023-02-07T06:00:22;103479.91;;;-1.49;48.24
58658;BME280;44428;45.630;13.786;2023-02-07T06:02:48;103488.53;;;-1.50;48.36
58658;BME280;44428;45.630;13.786;2023-02-07T06:05:15;103486.94;;;-1.45;48.50
58658;BME280;44428;45.630;13.786;2023-02-07T06:07:42;103486.78;;;-1.51;48.33
58658;BME280;44428;45.630;13.786;2023-02-07T06:10:09;103485.00;;;-1.52;47.92
58658;BME280;44428;45.630;13.786;2023-02-07T06:12:35;103484.94;;;-1.55;47.96
58658;BME280;44428;45.630;13.786;2023-02-07T06:15:01;103519.94;;;-1.38;47.56
58658;BME280;44428;45.630;13.786;2023-02-07T06:17:26;103504.25;;;-1.44;47.65
58658;BME280;44428;45.630;13.786;2023-02-07T06:19:52;103509.44;;;-1.44;47.41
58658;BME280;44428;45.630;13.786;2023-02-07T06:22:18;103512.94;;;-1.42;48.04
58658;BME280;44428;45.630;13.786;2023-02-07T06:24:44;103523.25;;;-1.45;48.34
58658;BME280;44428;45.630;13.786;2023-02-07T06:27:10;103511.03;;;-1.49;48.11
58658;BME280;44428;45.630;13.786;2023-02-07T06:29:35;103537.16;;;-1.41;47.84
58658;BME280;44428;45.630;13.786;2023-02-07T06:32:01;103541.53;;;-1.39;47.56
58658;BME280;44428;45.630;13.786;2023-02-07T06:34:27;103554.44;;;-1.42;47.10
58658;BME280;44428;45.630;13.786;2023-02-07T06:36:53;103529.38;;;-1.41;46.18
58658;BME280;44428;45.630;13.786;2023-02-07T06:39:19;103539.03;;;-1.35;45.53
58658;BME280;44428;45.630;13.786;2023-02-07T06:41:45;103528.59;;;-1.37;45.61
58658;BME280;44428;45.630;13.786;2023-02-07T06:44:10;103535.44;;;-1.41;45.22
58658;BME280;44428;45.630;13.786;2023-02-07T06:46:36;103555.47;;;-1.33;44.55
58658;BME280;44428;45.630;13.786;2023-02-07T06:49:02;103557.47;;;-1.23;43.73
58658;BME280;44428;45.630;13.786;2023-02-07T06:51:28;103558.63;;;-1.12;43.65
58658;BME280;44428;45.630;13.786;2023-02-07T06:53:54;103569.00;;;-1.12;44.28
58658;BME280;44428;45.630;13.786;2023-02-07T06:56:20;103560.31;;;-1.14;44.31
58658;BME280;44428;45.630;13.786;2023-02-07T06:58:46;103574.19;;;-1.12;43.93
58658;BME280;44428;45.630;13.786;2023-02-07T07:01:11;103559.50;;;-1.11;44.01
58658;BME280;44428;45.630;13.786;2023-02-07T07:03:37;103579.59;;;-1.03;42.80
58658;BME280;44428;45.630;13.786;2023-02-07T07:06:03;103571.19;;;-0.93;43.00
58658;BME280;44428;45.630;13.786;2023-02-07T07:08:29;103585.16;;;-0.87;43.24
58658;BME280;44428;45.630;13.786;2023-02-07T07:10:56;103588.50;;;-0.92;43.39
58658;BME280;44428;45.630;13.786;2023-02-07T07:13:22;103587.50;;;-0.98;42.52
58658;BME280;44428;45.630;13.786;2023-02-07T07:15:47;103591.16;;;-0.88;42.16
58658;BME280;44428;45.630;13.786;2023-02-07T07:18:13;103609.78;;;-0.70;41.90
58658;BME280;44428;45.630;13.786;2023-02-07T07:20:39;103607.81;;;-0.80;42.37
58658;BME280;44428;45.630;13.786;2023-02-07T07:23:05;103624.13;;;-0.86;42.65
58658;BME280;44428;45.630;13.786;2023-02-07T07:25:31;103625.22;;;-0.76;42.04
58658;BME280;44428;45.630;13.786;2023-02-07T07:27:56;103636.56;;;-0.73;41.55
58658;BME280;44428;45.630;13.786;2023-02-07T07:30:23;103636.72;;;-0.66;42.00
58658;BME280;44428;45.630;13.786;2023-02-07T07:32:49;103644.53;;;-0.65;41.52
58658;BME280;44428;45.630;13.786;2023-02-07T07:35:15;103626.41;;;-0.63;41.54
58658;BME280;44428;45.630;13.786;2023-02-07T07:37:40;103634.41;;;-0.53;41.40
58658;BME280;44428;45.630;13.786;2023-02-07T07:40:07;103630.16;;;-0.49;41.02
58658;BME280;44428;45.630;13.786;2023-02-07T07:42:33;103624.09;;;-0.50;41.46
58658;BME280;44428;45.630;13.786;2023-02-07T07:45:19;103633.22;;;-0.29;40.78
58658;BME280;44428;45.630;13.786;2023-02-07T07:47:45;103631.47;;;-0.30;41.11
58658;BME280;44428;45.630;13.786;2023-02-07T07:50:12;103633.22;;;-0.29;41.32
58658;BME280;44428;45.630;13.786;2023-02-07T07:52:38;103636.81;;;-0.24;41.23
58658;BME280;44428;45.630;13.786;2023-02-07T07:55:04;103643.69;;;-0.26;41.71
58658;BME280;44428;45.630;13.786;2023-02-07T07:57:30;103633.31;;;-0.25;41.91
58658;BME280;44428;45.630;13.786;2023-02-07T07:59:56;103629.91;;;-0.22;41.48
58658;BME280;44428;45.630;13.786;2023-02-07T08:02:22;103617.03;;;-0.16;41.90
58658;BME280;44428;45.630;13.786;2023-02-07T08:04:49;103631.09;;;-0.06;41.95
58658;BME280;44428;45.630;13.786;2023-02-07T08:07:15;103632.19;;;0.04;41.12
58658;BME280;44428;45.630;13.786;2023-02-07T08:09:41;103620.13;;;0.09;40.94
58658;BME280;44428;45.630;13.786;2023-02-07T08:12:07;103631.63;;;0.20;41.06
58658;BME280;44428;45.630;13.786;2023-02-07T08:14:33;103623.88;;;0.23;41.01
58658;BME280;44428;45.630;13.786;2023-02-07T08:16:59;103629.16;;;0.26;40.58
58658;BME280;44428;45.630;13.786;2023-02-07T08:19:24;103618.91;;;0.35;39.86
58658;BME280;44428;45.630;13.786;2023-02-07T08:21:50;103635.56;;;0.43;39.54
58658;BME280;44428;45.630;13.786;2023-02-07T08:24:16;103625.44;;;0.59;38.51
58658;BME280;44428;45.630;13.786;2023-02-07T08:26:42;103616.00;;;0.64;37.81
58658;BME280;44428;45.630;13.786;2023-02-07T08:29:07;103609.19;;;0.72;37.92
58658;BME280;44428;45.630;13.786;2023-02-07T08:31:33;103611.09;;;0.82;37.79
58658;BME280;44428;45.630;13.786;2023-02-07T08:33:59;103605.19;;;0.91;37.46
58658;BME280;44428;45.630;13.786;2023-02-07T08:36:25;103597.38;;;0.93;37.65
58658;BME280;44428;45.630;13.786;2023-02-07T08:38:51;103597.72;;;1.14;37.13
58658;BME280;44428;45.630;13.786;2023-02-07T08:41:17;103590.34;;;2.13;36.00
58658;BME280;44428;45.630;13.786;2023-02-07T08:43:43;103575.44;;;6.61;29.99
58658;BME280;44428;45.630;13.786;2023-02-07T08:46:09;103564.19;;;9.63;26.81
58658;BME280;44428;45.630;13.786;2023-02-07T08:48:34;103555.13;;;11.82;24.30
58658;BME280;44428;45.630;13.786;2023-02-07T08:51:05;103545.19;;;12.20;22.41
58658;BME280;44428;45.630;13.786;2023-02-07T08:53:31;103562.56;;;13.81;21.16
58658;BME280;44428;45.630;13.786;2023-02-07T08:55:57;103553.69;;;15.10;19.13
58658;BME280;44428;45.630;13.786;2023-02-07T08:58:22;103550.78;;;16.13;18.07
58658;BME280;44428;45.630;13.786;2023-02-07T09:00:48;103563.06;;;17.88;17.21
58658;BME280;44428;45.630;13.786;2023-02-07T09:03:14;103563.91;;;18.96;16.14
58658;BME280;44428;45.630;13.786;2023-02-07T09:05:40;103560.47;;;18.34;14.83
58658;BME280;44428;45.630;13.786;2023-02-07T09:08:06;103560.06;;;18.86;14.73
58658;BME280;44428;45.630;13.786;2023-02-07T09:10:31;103551.31;;;19.27;14.11
58658;BME280;44428;45.630;13.786;2023-02-07T09:12:57;103554.63;;;18.71;15.04
58658;BME280;44428;45.630;13.786;2023-02-07T09:15:23;103547.41;;;18.73;14.38
58658;BME280;44428;45.630;13.786;2023-02-07T09:17:48;103560.91;;;19.74;13.97
58658;BME280;44428;45.630;13.786;2023-02-07T09:20:15;103551.31;;;19.55;13.86
58658;BME280;44428;45.630;13.786;2023-02-07T09:22:41;103564.06;;;20.62;13.80
58658;BME280;44428;45.630;13.786;2023-02-07T09:25:25;103554.00;;;21.29;13.18
58658;BME280;44428;45.630;13.786;2023-02-07T09:27:51;103544.56;;;22.10;12.81
58658;BME280;44428;45.630;13.786;2023-02-07T09:30:17;103550.94;;;22.68;12.48
58658;BME280;44428;45.630;13.786;2023-02-07T09:32:43;103551.25;;;22.17;12.12
58658;BME280;44428;45.630;13.786;2023-02-07T09:35:09;103549.84;;;22.35;11.83
58658;BME280;44428;45.630;13.786;2023-02-07T09:37:35;103545.69;;;22.31;11.87
58658;BME280;44428;45.630;13.786;2023-02-07T09:40:01;103547.59;;;22.18;11.98
58658;BME280;44428;45.630;13.786;2023-02-07T09:42:37;103553.34;;;22.49;11.66
58658;BME280;44428;45.630;13.786;2023-02-07T09:45:18;103541.28;;;22.30;11.82
58658;BME280;44428;45.630;13.786;2023-02-07T09:47:46;103553.13;;;22.63;11.44
58658;BME280;44428;45.630;13.786;2023-02-07T09:50:27;103547.41;;;23.37;10.42
58658;BME280;44428;45.630;13.786;2023-02-07T09:53:15;103546.88;;;23.88;10.32
58658;BME280;44428;45.630;13.786;2023-02-07T09:55:48;103536.59;;;23.14;10.81
58658;BME280;44428;45.630;13.786;2023-02-07T10:01:04;103539.94;;;24.06;10.07
58658;BME280;44428;45.630;13.786;2023-02-07T10:03:35;103534.44;;;24.29;10.25
58658;BME280;44428;45.630;13.786;2023-02-07T10:06:05;103516.44;;;24.50;9.85
58658;BME280;44428;45.630;13.786;2023-02-07T10:08:33;103524.81;;;25.20;9.87
58658;BME280;44428;45.630;13.786;2023-02-07T10:16:25;103517.38;;;22.26;10.67
58658;BME280;44428;45.630;13.786;2023-02-07T10:28:08;103459.44;;;19.93;11.95
58658;BME280;44428;45.630;13.786;2023-02-07T10:30:33;103465.09;;;20.16;11.92
58658;BME280;44428;45.630;13.786;2023-02-07T10:33:11;103466.78;;;19.62;11.94
58658;BME280;44428;45.630;13.786;2023-02-07T10:35:38;103464.94;;;18.79;12.36
58658;BME280;44428;45.630;13.786;2023-02-07T10:38:13;103456.94;;;19.07;12.37
58658;BME280;44428;45.630;13.786;2023-02-07T10:40:52;103460.97;;;19.56;11.93
58658;BME280;44428;45.630;13.786;2023-02-07T10:43:32;103460.13;;;19.55;12.05
58658;BME280;44428;45.630;13.786;2023-02-07T10:46:03;103430.31;;;18.90;12.42
58658;BME280;44428;45.630;13.786;2023-02-07T10:48:31;103440.44;;;19.28;12.49
58658;BME280;44428;45.630;13.786;2023-02-07T10:50:59;103431.25;;;19.03;12.44
58658;BME280;44428;45.630;13.786;2023-02-07T10:53:45;103431.06;;;19.06;12.72
58658;BME280;44428;45.630;13.786;2023-02-07T10:56:19;103441.22;;;18.87;13.22
58658;BME280;44428;45.630;13.786;2023-02-07T10:58:47;103434.53;;;19.08;12.60
58658;BME280;44428;45.630;13.786;2023-02-07T11:01:19;103434.59;;;19.62;12.43
58658;BME280;44428;45.630;13.786;2023-02-07T11:03:46;103434.97;;;19.43;12.59
58658;BME280;44428;45.630;13.786;2023-02-07T11:06:14;103438.09;;;19.64;12.70
58658;BME280;44428;45.630;13.786;2023-02-07T11:08:41;103437.53;;;19.86;12.38
58658;BME280;44428;45.630;13.786;2023-02-07T11:11:36;103433.63;;;19.78;12.40
58658;BME280;44428;45.630;13.786;2023-02-07T11:14:14;103426.16;;;20.48;11.67
58658;BME280;44428;45.630;13.786;2023-02-07T11:16:42;103433.56;;;21.09;11.38
58658;BME280;44428;45.630;13.786;2023-02-07T11:19:15;103429.53;;;19.72;11.53
58658;BME280;44428;45.630;13.786;2023-02-07T11:21:43;103427.19;;;19.39;12.16
58658;BME280;44428;45.630;13.786;2023-02-07T11:24:38;103423.81;;;19.08;11.99
58658;BME280;44428;45.630;13.786;2023-02-07T11:27:10;103429.28;;;19.48;11.99
58658;BME280;44428;45.630;13.786;2023-02-07T11:29:45;103438.53;;;19.71;12.04
58658;BME280;44428;45.630;13.786;2023-02-07T11:32:14;103434.59;;;19.62;12.22
58658;BME280;44428;45.630;13.786;2023-02-07T11:34:47;103430.50;;;21.26;11.44
58658;BME280;44428;45.630;13.786;2023-02-07T11:37:31;103441.00;;;20.92;11.31
58658;BME280;44428;45.630;13.786;2023-02-07T11:42:41;103438.25;;;19.61;12.17
58658;BME280;44428;45.630;13.786;2023-02-07T11:45:14;103445.16;;;19.65;12.39
58658;BME280;44428;45.630;13.786;2023-02-07T11:47:45;103435.47;;;19.63;12.22
58658;BME280;44428;45.630;13.786;2023-02-07T11:50:42;103432.31;;;19.71;12.27
58658;BME280;44428;45.630;13.786;2023-02-07T11:53:20;103431.00;;;20.43;11.94
58658;BME280;44428;45.630;13.786;2023-02-07T11:55:50;103425.66;;;20.94;11.67
58658;BME280;44428;45.630;13.786;2023-02-07T11:58:37;103418.53;;;20.93;11.42
58658;BME280;44428;45.630;13.786;2023-02-07T12:01:06;103417.38;;;21.34;11.38
58658;BME280;44428;45.630;13.786;2023-02-07T12:03:49;103421.53;;;21.01;11.18
58658;BME280;44428;45.630;13.786;2023-02-07T12:06:18;103427.50;;;21.18;10.87
58658;BME280;44428;45.630;13.786;2023-02-07T12:08:48;103407.97;;;21.53;10.98
58658;BME280;44428;45.630;13.786;2023-02-07T12:11:18;103410.34;;;21.08;10.60
58658;BME280;44428;45.630;13.786;2023-02-07T12:13:49;103415.31;;;20.75;10.86
58658;BME280;44428;45.630;13.786;2023-02-07T12:16:20;103412.50;;;21.02;11.02
58658;BME280;44428;45.630;13.786;2023-02-07T12:19:01;103406.06;;;21.66;10.71
58658;BME280;44428;45.630;13.786;2023-02-07T12:24:04;103391.47;;;21.81;10.67
58658;BME280;44428;45.630;13.786;2023-02-07T12:26:41;103389.28;;;21.86;10.75
58658;BME280;44428;45.630;13.786;2023-02-07T12:32:13;103379.09;;;22.14;10.14
58658;BME280;44428;45.630;13.786;2023-02-07T12:37:41;103382.09;;;22.22;9.78
58658;BME280;44428;45.630;13.786;2023-02-07T12:42:48;103369.69;;;21.73;10.72
58658;BME280;44428;45.630;13.786;2023-02-07T12:45:33;103369.31;;;21.54;10.67
58658;BME280;44428;45.630;13.786;2023-02-07T13:04:10;103351.06;;;20.34;10.79
58658;BME280;44428;45.630;13.786;2023-02-07T13:07:00;103352.56;;;20.38;10.89
58658;BME280;44428;45.630;13.786;2023-02-07T13:18:06;103334.16;;;18.71;11.15
58658;BME280;44428;45.630;13.786;2023-02-07T13:23:23;103340.00;;;18.77;11.81
58658;BME280;44428;45.630;13.786;2023-02-07T13:25:54;103335.69;;;18.32;11.67
58658;BME280;44428;45.630;13.786;2023-02-07T13:28:31;103325.84;;;17.58;12.08
58658;BME280;44428;45.630;13.786;2023-02-07T13:30:59;103335.19;;;16.87;12.60
58658;BME280;44428;45.630;13.786;2023-02-07T13:33:31;103326.06;;;17.23;12.63
58658;BME280;44428;45.630;13.786;2023-02-07T13:50:18;103310.84;;;17.39;12.52
58658;BME280;44428;45.630;13.786;2023-02-07T13:53:20;103308.41;;;17.51;12.57
58658;BME280;44428;45.630;13.786;2023-02-07T13:55:49;103303.44;;;17.45;12.73
58658;BME280;44428;45.630;13.786;2023-02-07T14:01:23;103301.59;;;16.83;12.82
58658;BME280;44428;45.630;13.786;2023-02-07T14:04:16;103312.75;;;16.74;13.10
58658;BME280;44428;45.630;13.786;2023-02-07T14:09:30;103305.38;;;16.13;13.21
58658;BME280;44428;45.630;13.786;2023-02-07T14:12:03;103297.63;;;15.73;13.07
58658;BME280;44428;45.630;13.786;2023-02-07T14:14:36;103289.44;;;15.59;13.70
58658;BME280;44428;45.630;13.786;2023-02-07T14:19:53;103289.03;;;15.49;13.57
58658;BME280;44428;45.630;13.786;2023-02-07T14:27:33;103284.16;;;14.27;14.40
58658;BME280;44428;45.630;13.786;2023-02-07T14:30:21;103274.22;;;14.11;14.48
58658;BME280;44428;45.630;13.786;2023-02-07T14:33:33;103268.47;;;14.20;14.37
58658;BME280;44428;45.630;13.786;2023-02-07T14:41:10;103279.69;;;13.23;14.77
58658;BME280;44428;45.630;13.786;2023-02-07T14:43:43;103272.50;;;12.81;15.09
58658;BME280;44428;45.630;13.786;2023-02-07T14:46:15;103279.09;;;12.48;15.35
58658;BME280;44428;45.630;13.786;2023-02-07T14:48:46;103274.16;;;12.13;15.87
58658;BME280;44428;45.630;13.786;2023-02-07T14:51:29;103263.00;;;12.04;16.12
58658;BME280;44428;45.630;13.786;2023-02-07T14:54:05;103275.69;;;11.96;16.51
58658;BME280;44428;45.630;13.786;2023-02-07T14:59:34;103268.84;;;11.35;16.66
58658;BME280;44428;45.630;13.786;2023-02-07T15:02:43;103265.25;;;11.10;16.82
58658;BME280;44428;45.630;13.786;2023-02-07T15:05:19;103263.84;;;10.70;17.31
58658;BME280;44428;45.630;13.786;2023-02-07T15:07:47;103255.97;;;10.37;17.39